sensor_id;sensor_type;location;lat;lon;timestamp;P1;durP1;ratioP1;P2;durP2;ratioP2
46777;SDS011;32536;47.128;8.746;2024-03-23T00:53:58;1.98;;;1.23;;
46777;SDS011;32536;47.128;8.746;2024-03-23T00:56:25;1.40;;;1.27;;
46777;SDS011;32536;47.128;8.746;2024-03-23T00:58:52;1.63;;;1.17;;
46777;SDS011;32536;47.128;8.746;2024-03-23T01:01:18;3.15;;;1.45;;
46777;SDS011;32536;47.128;8.746;2024-03-23T01:03:45;2.38;;;1.38;;
46777;SDS011;32536;47.128;8.746;2024-03-23T01:06:12;1.85;;;1.25;;
46777;SDS011;32536;47.128;8.746;2024-03-23T01:08:39;2.20;;;1.30;;
46777;SDS011;32536;47.128;8.746;2024-03-23T01:11:05;1.73;;;1.17;;
46777;SDS011;32536;47.128;8.746;2024-03-23T01:13:32;2.60;;;1.73;;
46777;SDS011;32536;47.128;8.746;2024-03-23T01:15:59;2.80;;;1.58;;
46777;SDS011;32536;47.128;8.746;2024-03-23T01:18:25;3.30;;;1.80;;
46777;SDS011;32536;47.128;8.746;2024-03-23T01:20:52;2.85;;;1.65;;
46777;SDS011;32536;47.128;8.746;2024-03-23T01:23:19;2.35;;;1.70;;
46777;SDS011;32536;47.128;8.746;2024-03-23T01:25:52;2.33;;;1.30;;
46777;SDS011;32536;47.128;8.746;2024-03-23T01:28:20;1.77;;;1.17;;
46777;SDS011;32536;47.128;8.746;2024-03-23T01:30:47;3.15;;;2.42;;
46777;SDS011;32536;47.128;8.746;2024-03-23T01:36:12;3.55;;;2.05;;
46777;SDS011;32536;47.128;8.746;2024-03-23T01:38:38;2.00;;;1.60;;
46777;SDS011;32536;47.128;8.746;2024-03-23T01:41:05;3.25;;;2.25;;
46777;SDS011;32536;47.128;8.746;2024-03-23T01:43:32;2.20;;;1.60;;
46777;SDS011;32536;47.128;8.746;2024-03-23T01:45:59;2.53;;;1.63;;
46777;SDS011;32536;47.128;8.746;2024-03-23T01:48:26;2.90;;;1.38;;
46777;SDS011;32536;47.128;8.746;2024-03-23T01:50:53;2.90;;;1.55;;
46777;SDS011;32536;47.128;8.746;2024-03-23T01:53:19;2.53;;;1.23;;
46777;SDS011;32536;47.128;8.746;2024-03-23T01:55:49;2.90;;;1.55;;
46777;SDS011;32536;47.128;8.746;2024-03-23T01:58:17;1.95;;;1.40;;
46777;SDS011;32536;47.128;8.746;2024-03-23T02:00:44;2.97;;;1.77;;
46777;SDS011;32536;47.128;8.746;2024-03-23T02:03:33;1.90;;;1.48;;
46777;SDS011;32536;47.128;8.746;2024-03-23T02:05:58;2.75;;;2.00;;
46777;SDS011;32536;47.128;8.746;2024-03-23T02:08:24;1.83;;;1.25;;
46777;SDS011;32536;47.128;8.746;2024-03-23T02:10:51;3.35;;;2.22;;
46777;SDS011;32536;47.128;8.746;2024-03-23T02:13:18;2.05;;;1.50;;
46777;SDS011;32536;47.128;8.746;2024-03-23T02:15:46;1.42;;;1.00;;
46777;SDS011;32536;47.128;8.746;2024-03-23T02:18:13;2.72;;;1.55;;
46777;SDS011;32536;47.128;8.746;2024-03-23T02:20:40;2.63;;;1.15;;
46777;SDS011;32536;47.128;8.746;2024-03-23T02:23:16;2.17;;;1.20;;
46777;SDS011;32536;47.128;8.746;2024-03-23T02:25:43;3.72;;;1.50;;
46777;SDS011;32536;47.128;8.746;2024-03-23T02:28:11;2.33;;;1.38;;
46777;SDS011;32536;47.128;8.746;2024-03-23T02:30:38;1.23;;;0.73;;
46777;SDS011;32536;47.128;8.746;2024-03-23T02:33:04;2.20;;;1.17;;
46777;SDS011;32536;47.128;8.746;2024-03-23T02:35:31;1.67;;;1.25;;
46777;SDS011;32536;47.128;8.746;2024-03-23T02:37:59;1.52;;;1.30;;
46777;SDS011;32536;47.128;8.746;2024-03-23T02:40:26;1.65;;;1.25;;
46777;SDS011;32536;47.128;8.746;2024-03-23T02:42:54;1.52;;;1.10;;
46777;SDS011;32536;47.128;8.746;2024-03-23T02:45:21;2.10;;;1.42;;
46777;SDS011;32536;47.128;8.746;2024-03-23T02:47:48;2.40;;;2.08;;
46777;SDS011;32536;47.128;8.746;2024-03-23T02:50:21;2.05;;;1.48;;
46777;SDS011;32536;47.128;8.746;2024-03-23T02:52:48;1.70;;;1.13;;
46777;SDS011;32536;47.128;8.746;2024-03-23T02:55:14;1.98;;;1.30;;
46777;SDS011;32536;47.128;8.746;2024-03-23T02:57:41;2.00;;;1.15;;
46777;SDS011;32536;47.128;8.746;2024-03-23T03:00:08;2.33;;;1.25;;
46777;SDS011;32536;47.128;8.746;2024-03-23T03:02:36;1.42;;;1.15;;
46777;SDS011;32536;47.128;8.746;2024-03-23T03:05:03;1.73;;;1.30;;
46777;SDS011;32536;47.128;8.746;2024-03-23T03:07:32;2.67;;;1.05;;
46777;SDS011;32536;47.128;8.746;2024-03-23T03:09:58;1.70;;;1.13;;
46777;SDS011;32536;47.128;8.746;2024-03-23T03:12:25;2.47;;;1.52;;
46777;SDS011;32536;47.128;8.746;2024-03-23T03:14:52;2.75;;;1.67;;
46777;SDS011;32536;47.128;8.746;2024-03-23T03:17:19;1.48;;;0.88;;
46777;SDS011;32536;47.128;8.746;2024-03-23T03:19:46;2.03;;;1.70;;
46777;SDS011;32536;47.128;8.746;2024-03-23T03:22:12;1.80;;;1.23;;
46777;SDS011;32536;47.128;8.746;2024-03-23T03:24:39;2.17;;;1.95;;
46777;SDS011;32536;47.128;8.746;2024-03-23T03:27:06;1.80;;;1.20;;
46777;SDS011;32536;47.128;8.746;2024-03-23T03:29:33;2.45;;;1.48;;
46777;SDS011;32536;47.128;8.746;2024-03-23T03:32:02;1.65;;;1.40;;
46777;SDS011;32536;47.128;8.746;2024-03-23T03:34:29;2.72;;;2.35;;
46777;SDS011;32536;47.128;8.746;2024-03-23T03:36:56;2.30;;;1.55;;
46777;SDS011;32536;47.128;8.746;2024-03-23T03:39:24;1.58;;;1.30;;
46777;SDS011;32536;47.128;8.746;2024-03-23T03:41:51;1.52;;;1.20;;
46777;SDS011;32536;47.128;8.746;2024-03-23T03:44:17;1.33;;;1.15;;
46777;SDS011;32536;47.128;8.746;2024-03-23T03:46:44;1.88;;;1.17;;
46777;SDS011;32536;47.128;8.746;2024-03-23T03:49:11;2.42;;;1.38;;
46777;SDS011;32536;47.128;8.746;2024-03-23T03:51:37;1.40;;;1.00;;
46777;SDS011;32536;47.128;8.746;2024-03-23T03:54:04;2.78;;;1.98;;
46777;SDS011;32536;47.128;8.746;2024-03-23T03:56:31;2.00;;;1.15;;
46777;SDS011;32536;47.128;8.746;2024-03-23T03:58:58;2.05;;;1.42;;
46777;SDS011;32536;47.128;8.746;2024-03-23T04:01:25;4.05;;;1.92;;
46777;SDS011;32536;47.128;8.746;2024-03-23T04:03:52;2.08;;;1.48;;
46777;SDS011;32536;47.128;8.746;2024-03-23T04:06:19;1.73;;;1.15;;
46777;SDS011;32536;47.128;8.746;2024-03-23T04:08:45;2.15;;;1.40;;
46777;SDS011;32536;47.128;8.746;2024-03-23T04:11:12;2.08;;;1.35;;
46777;SDS011;32536;47.128;8.746;2024-03-23T04:13:39;1.92;;;1.35;;
46777;SDS011;32536;47.128;8.746;2024-03-23T04:16:07;2.30;;;1.98;;
46777;SDS011;32536;47.128;8.746;2024-03-23T04:18:37;2.17;;;1.73;;
46777;SDS011;32536;47.128;8.746;2024-03-23T04:21:04;3.20;;;1.92;;
46777;SDS011;32536;47.128;8.746;2024-03-23T04:23:30;2.65;;;1.90;;
46777;SDS011;32536;47.128;8.746;2024-03-23T04:26:02;2.10;;;1.75;;
46777;SDS011;32536;47.128;8.746;2024-03-23T04:28:30;1.35;;;1.25;;
46777;SDS011;32536;47.128;8.746;2024-03-23T04:30:58;1.42;;;1.25;;
46777;SDS011;32536;47.128;8.746;2024-03-23T04:36:23;2.75;;;2.22;;
46777;SDS011;32536;47.128;8.746;2024-03-23T04:38:49;2.10;;;1.13;;
46777;SDS011;32536;47.128;8.746;2024-03-23T04:41:18;2.15;;;1.55;;
46777;SDS011;32536;47.128;8.746;2024-03-23T04:43:45;2.08;;;1.33;;
46777;SDS011;32536;47.128;8.746;2024-03-23T04:46:11;2.05;;;1.75;;
46777;SDS011;32536;47.128;8.746;2024-03-23T04:48:38;1.95;;;1.63;;
46777;SDS011;32536;47.128;8.746;2024-03-23T04:51:05;1.55;;;1.20;;
46777;SDS011;32536;47.128;8.746;2024-03-23T04:53:31;3.08;;;1.27;;
46777;SDS011;32536;47.128;8.746;2024-03-23T04:55:58;1.67;;;1.23;;
46777;SDS011;32536;47.128;8.746;2024-03-23T04:58:25;1.88;;;1.58;;
46777;SDS011;32536;47.128;8.746;2024-03-23T05:00:55;1.98;;;1.52;;
46777;SDS011;32536;47.128;8.746;2024-03-23T05:03:23;1.90;;;1.48;;
46777;SDS011;32536;47.128;8.746;2024-03-23T05:05:50;1.80;;;1.27;;
46777;SDS011;32536;47.128;8.746;2024-03-23T05:08:17;3.03;;;1.48;;
46777;SDS011;32536;47.128;8.746;2024-03-23T05:10:44;2.10;;;1.27;;
46777;SDS011;32536;47.128;8.746;2024-03-23T05:13:11;2.22;;;1.67;;
46777;SDS011;32536;47.128;8.746;2024-03-23T05:15:38;2.90;;;1.73;;
46777;SDS011;32536;47.128;8.746;2024-03-23T05:18:05;2.25;;;1.20;;
46777;SDS011;32536;47.128;8.746;2024-03-23T05:20:32;2.28;;;1.83;;
46777;SDS011;32536;47.128;8.746;2024-03-23T05:22:59;1.95;;;1.30;;
46777;SDS011;32536;47.128;8.746;2024-03-23T05:25:25;1.60;;;1.05;;
46777;SDS011;32536;47.128;8.746;2024-03-23T05:27:52;2.13;;;1.55;;
46777;SDS011;32536;47.128;8.746;2024-03-23T05:30:19;1.98;;;1.60;;
46777;SDS011;32536;47.128;8.746;2024-03-23T05:32:46;2.60;;;1.80;;
46777;SDS011;32536;47.128;8.746;2024-03-23T05:35:12;2.13;;;1.63;;
46777;SDS011;32536;47.128;8.746;2024-03-23T05:37:39;2.50;;;1.52;;
46777;SDS011;32536;47.128;8.746;2024-03-23T05:40:06;2.40;;;1.48;;
46777;SDS011;32536;47.128;8.746;2024-03-23T05:42:35;2.35;;;1.35;;
46777;SDS011;32536;47.128;8.746;2024-03-23T05:45:01;2.58;;;1.63;;
46777;SDS011;32536;47.128;8.746;2024-03-23T05:47:32;2.30;;;1.83;;
46777;SDS011;32536;47.128;8.746;2024-03-23T05:49:58;2.17;;;1.90;;
46777;SDS011;32536;47.128;8.746;2024-03-23T05:52:25;2.78;;;1.88;;
46777;SDS011;32536;47.128;8.746;2024-03-23T05:54:52;3.83;;;2.10;;
46777;SDS011;32536;47.128;8.746;2024-03-23T05:57:19;3.13;;;1.80;;
46777;SDS011;32536;47.128;8.746;2024-03-23T05:59:46;1.92;;;1.08;;
46777;SDS011;32536;47.128;8.746;2024-03-23T06:02:13;2.38;;;1.67;;
46777;SDS011;32536;47.128;8.746;2024-03-23T06:04:40;2.13;;;1.75;;
46777;SDS011;32536;47.128;8.746;2024-03-23T06:07:06;3.83;;;2.03;;
46777;SDS011;32536;47.128;8.746;2024-03-23T06:09:39;5.43;;;2.47;;
46777;SDS011;32536;47.128;8.746;2024-03-23T06:12:08;5.70;;;2.75;;
46777;SDS011;32536;47.128;8.746;2024-03-23T06:14:35;3.72;;;2.28;;
46777;SDS011;32536;47.128;8.746;2024-03-23T06:17:02;4.20;;;1.85;;
46777;SDS011;32536;47.128;8.746;2024-03-23T06:19:29;4.40;;;2.30;;
46777;SDS011;32536;47.128;8.746;2024-03-23T06:21:55;4.82;;;2.33;;
46777;SDS011;32536;47.128;8.746;2024-03-23T06:24:22;5.40;;;2.80;;
46777;SDS011;32536;47.128;8.746;2024-03-23T06:26:50;4.20;;;2.25;;
46777;SDS011;32536;47.128;8.746;2024-03-23T06:29:17;5.20;;;3.20;;
46777;SDS011;32536;47.128;8.746;2024-03-23T06:31:43;4.40;;;2.65;;
46777;SDS011;32536;47.128;8.746;2024-03-23T06:34:10;5.13;;;2.85;;
46777;SDS011;32536;47.128;8.746;2024-03-23T06:36:37;5.15;;;3.15;;
46777;SDS011;32536;47.128;8.746;2024-03-23T06:39:04;5.50;;;2.45;;
46777;SDS011;32536;47.128;8.746;2024-03-23T06:41:31;5.47;;;3.58;;
46777;SDS011;32536;47.128;8.746;2024-03-23T06:43:57;5.28;;;2.88;;
46777;SDS011;32536;47.128;8.746;2024-03-23T06:46:24;4.85;;;2.38;;
46777;SDS011;32536;47.128;8.746;2024-03-23T06:48:51;5.32;;;2.75;;
46777;SDS011;32536;47.128;8.746;2024-03-23T06:51:17;3.80;;;1.88;;
46777;SDS011;32536;47.128;8.746;2024-03-23T06:53:44;4.40;;;2.90;;
46777;SDS011;32536;47.128;8.746;2024-03-23T06:56:11;4.57;;;2.58;;
46777;SDS011;32536;47.128;8.746;2024-03-23T06:58:37;4.25;;;2.72;;
46777;SDS011;32536;47.128;8.746;2024-03-23T07:01:04;6.18;;;2.95;;
46777;SDS011;32536;47.128;8.746;2024-03-23T07:03:31;5.03;;;3.08;;
46777;SDS011;32536;47.128;8.746;2024-03-23T07:05:58;5.50;;;2.53;;
46777;SDS011;32536;47.128;8.746;2024-03-23T07:08:25;5.80;;;3.50;;
46777;SDS011;32536;47.128;8.746;2024-03-23T07:10:52;6.03;;;2.90;;
46777;SDS011;32536;47.128;8.746;2024-03-23T07:13:18;5.53;;;2.97;;
46777;SDS011;32536;47.128;8.746;2024-03-23T07:15:50;5.07;;;2.80;;
46777;SDS011;32536;47.128;8.746;2024-03-23T07:18:18;6.18;;;3.97;;
46777;SDS011;32536;47.128;8.746;2024-03-23T07:20:54;5.45;;;3.25;;
46777;SDS011;32536;47.128;8.746;2024-03-23T07:23:22;4.63;;;2.80;;
46777;SDS011;32536;47.128;8.746;2024-03-23T07:26:02;4.20;;;1.92;;
46777;SDS011;32536;47.128;8.746;2024-03-23T07:28:31;3.25;;;2.13;;
46777;SDS011;32536;47.128;8.746;2024-03-23T07:36:32;4.25;;;2.58;;
46777;SDS011;32536;47.128;8.746;2024-03-23T07:38:59;4.57;;;2.75;;
46777;SDS011;32536;47.128;8.746;2024-03-23T07:41:25;5.95;;;3.20;;
46777;SDS011;32536;47.128;8.746;2024-03-23T07:43:53;4.63;;;2.22;;
46777;SDS011;32536;47.128;8.746;2024-03-23T07:46:20;3.45;;;2.08;;
46777;SDS011;32536;47.128;8.746;2024-03-23T07:48:47;3.65;;;2.17;;
46777;SDS011;32536;47.128;8.746;2024-03-23T07:51:21;4.80;;;2.58;;
46777;SDS011;32536;47.128;8.746;2024-03-23T07:53:49;4.82;;;2.90;;
46777;SDS011;32536;47.128;8.746;2024-03-23T07:56:16;5.53;;;2.50;;
46777;SDS011;32536;47.128;8.746;2024-03-23T07:58:44;4.93;;;2.90;;
46777;SDS011;32536;47.128;8.746;2024-03-23T08:01:11;3.22;;;2.10;;
46777;SDS011;32536;47.128;8.746;2024-03-23T08:03:40;4.32;;;2.65;;
46777;SDS011;32536;47.128;8.746;2024-03-23T08:06:18;4.57;;;3.17;;
46777;SDS011;32536;47.128;8.746;2024-03-23T08:08:48;3.08;;;1.60;;
46777;SDS011;32536;47.128;8.746;2024-03-23T08:11:25;3.30;;;2.10;;
46777;SDS011;32536;47.128;8.746;2024-03-23T08:13:54;4.55;;;2.50;;
46777;SDS011;32536;47.128;8.746;2024-03-23T08:16:21;4.45;;;2.60;;
46777;SDS011;32536;47.128;8.746;2024-03-23T08:18:52;4.22;;;1.95;;
46777;SDS011;32536;47.128;8.746;2024-03-23T08:23:48;3.60;;;1.83;;
46777;SDS011;32536;47.128;8.746;2024-03-23T08:26:15;5.55;;;2.33;;
46777;SDS011;32536;47.128;8.746;2024-03-23T08:28:46;4.18;;;2.28;;
46777;SDS011;32536;47.128;8.746;2024-03-23T08:31:13;3.58;;;2.00;;
46777;SDS011;32536;47.128;8.746;2024-03-23T08:36:37;2.58;;;1.88;;
46777;SDS011;32536;47.128;8.746;2024-03-23T08:39:04;4.40;;;2.38;;
46777;SDS011;32536;47.128;8.746;2024-03-23T08:41:31;4.60;;;2.28;;
46777;SDS011;32536;47.128;8.746;2024-03-23T08:43:58;2.78;;;1.67;;
46777;SDS011;32536;47.128;8.746;2024-03-23T08:46:25;1.85;;;1.52;;
46777;SDS011;32536;47.128;8.746;2024-03-23T08:48:51;2.42;;;2.22;;
46777;SDS011;32536;47.128;8.746;2024-03-23T08:51:18;2.40;;;1.88;;
46777;SDS011;32536;47.128;8.746;2024-03-23T08:53:45;1.67;;;1.52;;
46777;SDS011;32536;47.128;8.746;2024-03-23T08:56:12;1.15;;;0.93;;
46777;SDS011;32536;47.128;8.746;2024-03-23T08:58:39;1.65;;;0.98;;
46777;SDS011;32536;47.128;8.746;2024-03-23T09:03:35;1.67;;;1.33;;
46777;SDS011;32536;47.128;8.746;2024-03-23T09:06:12;1.42;;;1.05;;
46777;SDS011;32536;47.128;8.746;2024-03-23T09:08:41;1.35;;;1.25;;
46777;SDS011;32536;47.128;8.746;2024-03-23T09:11:08;1.42;;;1.02;;
46777;SDS011;32536;47.128;8.746;2024-03-23T09:13:39;1.58;;;0.88;;
46777;SDS011;32536;47.128;8.746;2024-03-23T09:16:07;1.23;;;1.10;;
46777;SDS011;32536;47.128;8.746;2024-03-23T09:18:35;1.45;;;1.23;;
46777;SDS011;32536;47.128;8.746;2024-03-23T09:21:03;1.95;;;1.50;;
46777;SDS011;32536;47.128;8.746;2024-03-23T09:23:37;1.60;;;1.27;;
46777;SDS011;32536;47.128;8.746;2024-03-23T09:26:04;1.75;;;1.38;;
46777;SDS011;32536;47.128;8.746;2024-03-23T09:28:33;1.45;;;1.20;;
46777;SDS011;32536;47.128;8.746;2024-03-23T09:31:06;1.42;;;1.15;;
46777;SDS011;32536;47.128;8.746;2024-03-23T09:33:34;1.63;;;1.52;;
46777;SDS011;32536;47.128;8.746;2024-03-23T09:36:05;1.35;;;1.02;;
46777;SDS011;32536;47.128;8.746;2024-03-23T09:38:33;1.55;;;1.13;;
46777;SDS011;32536;47.128;8.746;2024-03-23T09:41:06;3.00;;;1.70;;
46777;SDS011;32536;47.128;8.746;2024-03-23T09:43:34;3.45;;;1.75;;
46777;SDS011;32536;47.128;8.746;2024-03-23T09:46:02;3.10;;;2.00;;
46777;SDS011;32536;47.128;8.746;2024-03-23T09:48:29;2.33;;;1.55;;
46777;SDS011;32536;47.128;8.746;2024-03-23T09:50:56;1.30;;;1.17;;
46777;SDS011;32536;47.128;8.746;2024-03-23T09:53:23;2.33;;;1.70;;
46777;SDS011;32536;47.128;8.746;2024-03-23T09:55:50;2.15;;;1.63;;
46777;SDS011;32536;47.128;8.746;2024-03-23T09:58:17;2.58;;;1.45;;
46777;SDS011;32536;47.128;8.746;2024-03-23T10:00:44;2.55;;;1.80;;
46777;SDS011;32536;47.128;8.746;2024-03-23T10:03:11;1.88;;;1.30;;
46777;SDS011;32536;47.128;8.746;2024-03-23T10:05:38;2.15;;;1.83;;
46777;SDS011;32536;47.128;8.746;2024-03-23T10:08:26;1.63;;;1.15;;
46777;SDS011;32536;47.128;8.746;2024-03-23T10:10:55;2.25;;;1.67;;
46777;SDS011;32536;47.128;8.746;2024-03-23T10:13:26;1.77;;;1.35;;
46777;SDS011;32536;47.128;8.746;2024-03-23T10:15:58;1.52;;;1.30;;
46777;SDS011;32536;47.128;8.746;2024-03-23T10:18:26;1.73;;;1.52;;
46777;SDS011;32536;47.128;8.746;2024-03-23T10:21:06;1.58;;;1.00;;
46777;SDS011;32536;47.128;8.746;2024-03-23T10:23:34;1.95;;;1.15;;
46777;SDS011;32536;47.128;8.746;2024-03-23T10:26:19;2.88;;;1.35;;
46777;SDS011;32536;47.128;8.746;2024-03-23T10:28:57;2.75;;;1.33;;
46777;SDS011;32536;47.128;8.746;2024-03-23T10:31:29;2.60;;;1.55;;
46777;SDS011;32536;47.128;8.746;2024-03-23T10:37:01;1.67;;;1.45;;
46777;SDS011;32536;47.128;8.746;2024-03-23T10:39:32;1.55;;;1.05;;
46777;SDS011;32536;47.128;8.746;2024-03-23T10:42:04;2.58;;;2.38;;
46777;SDS011;32536;47.128;8.746;2024-03-23T10:44:33;1.67;;;1.50;;
46777;SDS011;32536;47.128;8.746;2024-03-23T10:47:01;2.15;;;1.25;;
46777;SDS011;32536;47.128;8.746;2024-03-23T10:49:29;1.75;;;1.20;;
46777;SDS011;32536;47.128;8.746;2024-03-23T10:52:01;2.10;;;1.45;;
46777;SDS011;32536;47.128;8.746;2024-03-23T10:54:31;5.15;;;1.30;;
46777;SDS011;32536;47.128;8.746;2024-03-23T10:57:02;1.77;;;1.40;;
46777;SDS011;32536;47.128;8.746;2024-03-23T10:59:37;1.80;;;1.52;;
46777;SDS011;32536;47.128;8.746;2024-03-23T11:02:04;1.55;;;1.10;;
46777;SDS011;32536;47.128;8.746;2024-03-23T11:09:52;1.80;;;1.50;;
46777;SDS011;32536;47.128;8.746;2024-03-23T11:17:32;1.25;;;1.05;;
46777;SDS011;32536;47.128;8.746;2024-03-23T11:19:59;1.55;;;1.10;;
46777;SDS011;32536;47.128;8.746;2024-03-23T11:27:47;2.33;;;1.65;;
46777;SDS011;32536;47.128;8.746;2024-03-23T11:30:18;2.17;;;1.13;;
46777;SDS011;32536;47.128;8.746;2024-03-23T11:32:55;2.53;;;1.63;;
46777;SDS011;32536;47.128;8.746;2024-03-23T11:35:26;3.08;;;1.55;;
46777;SDS011;32536;47.128;8.746;2024-03-23T11:38:03;2.67;;;1.67;;
46777;SDS011;32536;47.128;8.746;2024-03-23T11:40:36;4.03;;;2.22;;
46777;SDS011;32536;47.128;8.746;2024-03-23T11:43:06;3.03;;;1.42;;
46777;SDS011;32536;47.128;8.746;2024-03-23T11:45:44;3.88;;;1.55;;
46777;SDS011;32536;47.128;8.746;2024-03-23T11:48:19;3.72;;;1.45;;
46777;SDS011;32536;47.128;8.746;2024-03-23T11:50:48;2.95;;;1.88;;
46777;SDS011;32536;47.128;8.746;2024-03-23T11:53:25;4.05;;;1.67;;
46777;SDS011;32536;47.128;8.746;2024-03-23T11:55:57;4.03;;;2.75;;
46777;SDS011;32536;47.128;8.746;2024-03-23T12:00:59;4.32;;;1.90;;
46777;SDS011;32536;47.128;8.746;2024-03-23T12:03:29;3.85;;;1.80;;
46777;SDS011;32536;47.128;8.746;2024-03-23T12:05:58;4.50;;;1.98;;
46777;SDS011;32536;47.128;8.746;2024-03-23T12:13:32;4.45;;;1.85;;
46777;SDS011;32536;47.128;8.746;2024-03-23T12:16:09;6.18;;;1.98;;
46777;SDS011;32536;47.128;8.746;2024-03-23T12:18:46;4.13;;;1.52;;
46777;SDS011;32536;47.128;8.746;2024-03-23T12:21:15;4.05;;;2.42;;
46777;SDS011;32536;47.128;8.746;2024-03-23T12:23:43;3.90;;;1.98;;
46777;SDS011;32536;47.128;8.746;2024-03-23T12:26:12;4.18;;;1.80;;
46777;SDS011;32536;47.128;8.746;2024-03-23T12:28:39;4.18;;;1.90;;
46777;SDS011;32536;47.128;8.746;2024-03-23T12:31:05;2.95;;;1.55;;
46777;SDS011;32536;47.128;8.746;2024-03-23T12:33:32;4.03;;;2.80;;
46777;SDS011;32536;47.128;8.746;2024-03-23T12:35:59;4.00;;;1.83;;
46777;SDS011;32536;47.128;8.746;2024-03-23T12:38:26;4.03;;;2.17;;
46777;SDS011;32536;47.128;8.746;2024-03-23T12:40:53;4.50;;;2.45;;
46777;SDS011;32536;47.128;8.746;2024-03-23T12:43:19;3.38;;;1.88;;
46777;SDS011;32536;47.128;8.746;2024-03-23T12:45:49;5.00;;;1.85;;
46777;SDS011;32536;47.128;8.746;2024-03-23T12:48:16;3.53;;;1.73;;
46777;SDS011;32536;47.128;8.746;2024-03-23T12:50:44;4.75;;;1.90;;
46777;SDS011;32536;47.128;8.746;2024-03-23T12:53:10;4.78;;;2.17;;
46777;SDS011;32536;47.128;8.746;2024-03-23T12:55:37;3.53;;;2.03;;
46777;SDS011;32536;47.128;8.746;2024-03-23T12:58:04;3.45;;;1.63;;
46777;SDS011;32536;47.128;8.746;2024-03-23T13:00:31;2.85;;;1.90;;
46777;SDS011;32536;47.128;8.746;2024-03-23T13:02:57;4.20;;;1.92;;
46777;SDS011;32536;47.128;8.746;2024-03-23T13:05:24;1.98;;;1.20;;
46777;SDS011;32536;47.128;8.746;2024-03-23T13:07:51;3.80;;;1.77;;
46777;SDS011;32536;47.128;8.746;2024-03-23T13:10:17;3.28;;;2.22;;
46777;SDS011;32536;47.128;8.746;2024-03-23T13:12:44;3.05;;;1.52;;
46777;SDS011;32536;47.128;8.746;2024-03-23T13:15:11;4.28;;;1.23;;
46777;SDS011;32536;47.128;8.746;2024-03-23T13:17:37;3.10;;;1.55;;
46777;SDS011;32536;47.128;8.746;2024-03-23T13:20:04;3.97;;;1.83;;
46777;SDS011;32536;47.128;8.746;2024-03-23T13:22:37;5.22;;;1.67;;
46777;SDS011;32536;47.128;8.746;2024-03-23T13:25:03;3.63;;;1.38;;
46777;SDS011;32536;47.128;8.746;2024-03-23T13:27:31;4.53;;;2.08;;
46777;SDS011;32536;47.128;8.746;2024-03-23T13:29:57;4.03;;;1.67;;
46777;SDS011;32536;47.128;8.746;2024-03-23T13:32:24;3.30;;;1.55;;
46777;SDS011;32536;47.128;8.746;2024-03-23T13:34:51;3.08;;;1.48;;
46777;SDS011;32536;47.128;8.746;2024-03-23T13:37:17;3.70;;;1.25;;
46777;SDS011;32536;47.128;8.746;2024-03-23T13:39:44;2.75;;;1.80;;
46777;SDS011;32536;47.128;8.746;2024-03-23T13:42:11;2.30;;;1.08;;
46777;SDS011;32536;47.128;8.746;2024-03-23T13:44:38;3.70;;;1.58;;
46777;SDS011;32536;47.128;8.746;2024-03-23T13:47:05;4.10;;;1.90;;
46777;SDS011;32536;47.128;8.746;2024-03-23T13:49:31;3.90;;;1.75;;
46777;SDS011;32536;47.128;8.746;2024-03-23T13:51:58;3.05;;;1.58;;
46777;SDS011;32536;47.128;8.746;2024-03-23T13:54:26;2.22;;;1.13;;
46777;SDS011;32536;47.128;8.746;2024-03-23T13:56:54;2.22;;;1.27;;
46777;SDS011;32536;47.128;8.746;2024-03-23T13:59:22;4.10;;;1.65;;
46777;SDS011;32536;47.128;8.746;2024-03-23T14:01:50;4.82;;;1.98;;
46777;SDS011;32536;47.128;8.746;2024-03-23T14:04:17;3.50;;;1.63;;
46777;SDS011;32536;47.128;8.746;2024-03-23T14:06:48;4.63;;;1.92;;
46777;SDS011;32536;47.128;8.746;2024-03-23T14:09:15;7.30;;;2.42;;
46777;SDS011;32536;47.128;8.746;2024-03-23T14:11:47;3.38;;;1.58;;
46777;SDS011;32536;47.128;8.746;2024-03-23T14:14:14;3.33;;;1.48;;
46777;SDS011;32536;47.128;8.746;2024-03-23T14:16:42;4.25;;;1.77;;
46777;SDS011;32536;47.128;8.746;2024-03-23T14:19:09;3.40;;;1.38;;
46777;SDS011;32536;47.128;8.746;2024-03-23T14:21:36;2.67;;;1.35;;
46777;SDS011;32536;47.128;8.746;2024-03-23T14:24:04;2.08;;;0.90;;
46777;SDS011;32536;47.128;8.746;2024-03-23T14:26:31;5.03;;;1.65;;
46777;SDS011;32536;47.128;8.746;2024-03-23T14:28:57;4.70;;;1.00;;
46777;SDS011;32536;47.128;8.746;2024-03-23T14:31:24;3.00;;;1.52;;
46777;SDS011;32536;47.128;8.746;2024-03-23T14:33:51;5.18;;;1.30;;
46777;SDS011;32536;47.128;8.746;2024-03-23T14:36:18;2.80;;;1.25;;
46777;SDS011;32536;47.128;8.746;2024-03-23T14:38:48;2.38;;;1.15;;
46777;SDS011;32536;47.128;8.746;2024-03-23T14:41:15;3.35;;;1.55;;
46777;SDS011;32536;47.128;8.746;2024-03-23T14:43:42;3.15;;;1.90;;
46777;SDS011;32536;47.128;8.746;2024-03-23T14:46:10;2.45;;;1.30;;
46777;SDS011;32536;47.128;8.746;2024-03-23T14:48:42;2.88;;;2.08;;
46777;SDS011;32536;47.128;8.746;2024-03-23T14:51:10;2.85;;;1.38;;
46777;SDS011;32536;47.128;8.746;2024-03-23T14:53:38;3.45;;;1.38;;
46777;SDS011;32536;47.128;8.746;2024-03-23T14:56:07;2.65;;;1.35;;
46777;SDS011;32536;47.128;8.746;2024-03-23T14:58:37;4.10;;;1.83;;
46777;SDS011;32536;47.128;8.746;2024-03-23T15:01:05;5.40;;;1.98;;
46777;SDS011;32536;47.128;8.746;2024-03-23T15:03:36;2.83;;;1.38;;
46777;SDS011;32536;47.128;8.746;2024-03-23T15:06:08;4.25;;;1.65;;
46777;SDS011;32536;47.128;8.746;2024-03-23T15:08:35;2.50;;;1.65;;
46777;SDS011;32536;47.128;8.746;2024-03-23T15:11:03;1.75;;;1.17;;
46777;SDS011;32536;47.128;8.746;2024-03-23T15:13:33;2.40;;;1.13;;
46777;SDS011;32536;47.128;8.746;2024-03-23T15:16:04;2.33;;;1.58;;
46777;SDS011;32536;47.128;8.746;2024-03-23T15:18:32;3.30;;;2.45;;
46777;SDS011;32536;47.128;8.746;2024-03-23T15:21:02;2.95;;;1.30;;
46777;SDS011;32536;47.128;8.746;2024-03-23T15:23:37;4.10;;;2.67;;
46777;SDS011;32536;47.128;8.746;2024-03-23T15:26:04;5.28;;;2.00;;
46777;SDS011;32536;47.128;8.746;2024-03-23T15:28:31;2.47;;;2.17;;
46777;SDS011;32536;47.128;8.746;2024-03-23T15:31:07;6.18;;;1.83;;
46777;SDS011;32536;47.128;8.746;2024-03-23T15:33:35;3.22;;;1.65;;
46777;SDS011;32536;47.128;8.746;2024-03-23T15:36:02;3.15;;;1.88;;
46777;SDS011;32536;47.128;8.746;2024-03-23T15:38:33;2.70;;;1.17;;
46777;SDS011;32536;47.128;8.746;2024-03-23T15:41:00;3.10;;;1.63;;
46777;SDS011;32536;47.128;8.746;2024-03-23T15:43:27;3.60;;;1.63;;
46777;SDS011;32536;47.128;8.746;2024-03-23T15:45:54;3.10;;;1.33;;
46777;SDS011;32536;47.128;8.746;2024-03-23T15:48:36;3.22;;;1.67;;
46777;SDS011;32536;47.128;8.746;2024-03-23T15:51:03;4.60;;;2.22;;
46777;SDS011;32536;47.128;8.746;2024-03-23T15:53:30;4.40;;;1.58;;
46777;SDS011;32536;47.128;8.746;2024-03-23T15:56:01;2.50;;;1.65;;
46777;SDS011;32536;47.128;8.746;2024-03-23T15:58:30;3.03;;;1.38;;
46777;SDS011;32536;47.128;8.746;2024-03-23T16:00:59;4.38;;;1.60;;
46777;SDS011;32536;47.128;8.746;2024-03-23T16:03:27;3.03;;;1.73;;
46777;SDS011;32536;47.128;8.746;2024-03-23T16:05:56;3.80;;;1.25;;
46777;SDS011;32536;47.128;8.746;2024-03-23T16:08:31;2.15;;;1.83;;
46777;SDS011;32536;47.128;8.746;2024-03-23T16:11:02;3.53;;;1.33;;
46777;SDS011;32536;47.128;8.746;2024-03-23T16:13:31;4.22;;;1.80;;
46777;SDS011;32536;47.128;8.746;2024-03-23T16:16:00;3.55;;;1.27;;
46777;SDS011;32536;47.128;8.746;2024-03-23T16:18:36;2.45;;;1.23;;
46777;SDS011;32536;47.128;8.746;2024-03-23T16:21:07;3.47;;;1.63;;
46777;SDS011;32536;47.128;8.746;2024-03-23T16:23:34;4.32;;;1.95;;
46777;SDS011;32536;47.128;8.746;2024-03-23T16:26:03;3.22;;;1.52;;
46777;SDS011;32536;47.128;8.746;2024-03-23T16:28:31;5.60;;;1.73;;
46777;SDS011;32536;47.128;8.746;2024-03-23T16:31:09;2.75;;;1.58;;
46777;SDS011;32536;47.128;8.746;2024-03-23T16:33:37;5.38;;;1.73;;